sensor_id;sensor_type;location;lat;lon;timestamp;pressure;altitude;pressure_sealevel;temperature;humidity
50696;BME280;36665;51.786;21.594;2022-09-12T00:05:13;94459.55;;;9.75;74.28
50696;BME280;36665;51.786;21.594;2022-09-12T00:13:38;94494.80;;;9.83;74.29
50696;BME280;36665;51.786;21.594;2022-09-12T00:22:03;94517.92;;;9.90;74.24
50696;BME280;36665;51.786;21.594;2022-09-12T00:30:26;94529.81;;;9.91;74.29
50696;BME280;36665;51.786;21.594;2022-09-12T00:38:50;94530.69;;;9.92;74.42
50696;BME280;36665;51.786;21.594;2022-09-12T00:47:23;94549.16;;;9.97;74.30
50696;BME280;36665;51.786;21.594;2022-09-12T00:55:49;94565.96;;;10.00;74.30
50696;BME280;36665;51.786;21.594;2022-09-12T01:04:15;94574.27;;;10.03;74.33
50696;BME280;36665;51.786;21.594;2022-09-12T01:12:40;94570.22;;;10.03;74.33
50696;BME280;36665;51.786;21.594;2022-09-12T01:21:13;94570.98;;;10.02;74.43
50696;BME280;36665;51.786;21.594;2022-09-12T01:38:38;94576.09;;;10.03;74.34
50696;BME280;36665;51.786;21.594;2022-09-12T01:47:19;94582.70;;;10.04;74.62
50696;BME280;36665;51.786;21.594;2022-09-12T01:55:47;94585.87;;;10.05;74.63
50696;BME280;36665;51.786;21.594;2022-09-12T02:04:28;94601.09;;;10.09;74.48
50696;BME280;36665;51.786;21.594;2022-09-12T02:13:00;94603.81;;;10.11;74.58
50696;BME280;36665;51.786;21.594;2022-09-12T02:21:26;94595.86;;;10.08;74.36
50696;BME280;36665;51.786;21.594;2022-09-12T02:29:50;94594.48;;;10.08;74.56
50696;BME280;36665;51.786;21.594;2022-09-12T02:38:23;94588.66;;;10.05;74.45
50696;BME280;36665;51.786;21.594;2022-09-12T02:46:51;94579.67;;;10.04;74.53
50696;BME280;36665;51.786;21.594;2022-09-12T02:55:16;94579.53;;;10.03;74.42
50696;BME280;36665;51.786;21.594;2022-09-12T03:03:58;94571.12;;;10.01;74.51
50696;BME280;36665;51.786;21.594;2022-09-12T03:30:24;94565.16;;;9.98;74.58
50696;BME280;36665;51.786;21.594;2022-09-12T03:38:49;94570.47;;;10.01;74.43
50696;BME280;36665;51.786;21.594;2022-09-12T03:47:11;94571.13;;;10.01;74.68
50696;BME280;36665;51.786;21.594;2022-09-12T03:55:34;94564.44;;;9.99;74.40
50696;BME280;36665;51.786;21.594;2022-09-12T04:03:58;94573.70;;;10.01;74.43
50696;BME280;36665;51.786;21.594;2022-09-12T04:12:21;94571.61;;;10.00;74.53
50696;BME280;36665;51.786;21.594;2022-09-12T04:20:44;94556.77;;;9.96;74.60
50696;BME280;36665;51.786;21.594;2022-09-12T04:29:10;94504.64;;;9.84;74.43
50696;BME280;36665;51.786;21.594;2022-09-12T04:37:33;94491.54;;;9.80;74.47
50696;BME280;36665;51.786;21.594;2022-09-12T04:46:04;94456.25;;;9.71;74.35
50696;BME280;36665;51.786;21.594;2022-09-12T04:54:27;94415.13;;;9.60;74.47
50696;BME280;36665;51.786;21.594;2022-09-12T05:02:49;94414.27;;;9.60;74.44
50696;BME280;36665;51.786;21.594;2022-09-12T05:11:19;94417.54;;;9.61;74.52
50696;BME280;36665;51.786;21.594;2022-09-12T05:19:48;94415.01;;;9.60;74.36
50696;BME280;36665;51.786;21.594;2022-09-12T05:28:11;94428.84;;;9.64;74.61
50696;BME280;36665;51.786;21.594;2022-09-12T05:36:35;94441.51;;;9.67;74.68
50696;BME280;36665;51.786;21.594;2022-09-12T05:44:58;94443.55;;;9.67;74.50
50696;BME280;36665;51.786;21.594;2022-09-12T05:53:21;94472.83;;;9.75;74.56
50696;BME280;36665;51.786;21.594;2022-09-12T06:01:44;94486.59;;;9.78;74.51
50696;BME280;36665;51.786;21.594;2022-09-12T06:10:09;94514.84;;;9.86;74.67
50696;BME280;36665;51.786;21.594;2022-09-12T06:18:34;94524.05;;;9.88;74.75
50696;BME280;36665;51.786;21.594;2022-09-12T06:26:57;94552.14;;;9.94;74.78
50696;BME280;36665;51.786;21.594;2022-09-12T06:35:20;94581.56;;;10.01;74.80
50696;BME280;36665;51.786;21.594;2022-09-12T06:43:43;94596.41;;;10.05;74.78
50696;BME280;36665;51.786;21.594;2022-09-12T06:52:06;94618.55;;;10.11;74.85
50696;BME280;36665;51.786;21.594;2022-09-12T07:00:29;94647.83;;;10.18;74.81
50696;BME280;36665;51.786;21.594;2022-09-12T07:08:52;94661.39;;;10.22;74.96
50696;BME280;36665;51.786;21.594;2022-09-12T07:17:16;94642.71;;;10.17;74.88
50696;BME280;36665;51.786;21.594;2022-09-12T07:25:39;94643.73;;;10.17;74.80
50696;BME280;36665;51.786;21.594;2022-09-12T07:34:05;94656.08;;;10.20;74.85
50696;BME280;36665;51.786;21.594;2022-09-12T07:42:28;94686.30;;;10.27;75.13
50696;BME280;36665;51.786;21.594;2022-09-12T07:51:02;94733.64;;;10.38;74.89
50696;BME280;36665;51.786;21.594;2022-09-12T07:59:25;94786.48;;;10.51;75.01
50696;BME280;36665;51.786;21.594;2022-09-12T08:08:09;94822.30;;;10.60;75.12
50696;BME280;36665;51.786;21.594;2022-09-12T08:16:33;94857.29;;;10.69;75.21
50696;BME280;36665;51.786;21.594;2022-09-12T08:24:57;94891.52;;;10.77;75.35
50696;BME280;36665;51.786;21.594;2022-09-12T08:33:20;94952.35;;;10.92;75.07
50696;BME280;36665;51.786;21.594;2022-09-12T08:41:46;94965.21;;;10.95;75.36
50696;BME280;36665;51.786;21.594;2022-09-12T08:58:38;95000.02;;;11.05;75.23
50696;BME280;36665;51.786;21.594;2022-09-12T09:15:57;95037.64;;;11.13;75.35
50696;BME280;36665;51.786;21.594;2022-09-12T09:24:44;95052.40;;;11.16;75.39
50696;BME280;36665;51.786;21.594;2022-09-12T09:33:19;95081.72;;;11.24;75.49
50696;BME280;36665;51.786;21.594;2022-09-12T09:50:16;95223.72;;;11.60;75.53
50696;BME280;36665;51.786;21.594;2022-09-12T09:58:39;95235.66;;;11.63;75.73
50696;BME280;36665;51.786;21.594;2022-09-12T10:07:03;95206.20;;;11.55;75.56
50696;BME280;36665;51.786;21.594;2022-09-12T10:15:27;95188.10;;;11.50;75.49
50696;BME280;36665;51.786;21.594;2022-09-12T10:23:58;95190.59;;;11.50;75.55
50696;BME280;36665;51.786;21.594;2022-09-12T10:32:35;95199.41;;;11.53;75.57
50696;BME280;36665;51.786;21.594;2022-09-12T10:41:06;95249.16;;;11.65;75.72
50696;BME280;36665;51.786;21.594;2022-09-12T10:49:31;95308.46;;;11.80;75.69
50696;BME280;36665;51.786;21.594;2022-09-12T10:58:10;95324.16;;;11.84;75.69
50696;BME280;36665;51.786;21.594;2022-09-12T11:16:15;95383.20;;;11.99;75.71
50696;BME280;36665;51.786;21.594;2022-09-12T11:41:35;95340.17;;;11.87;75.36
50696;BME280;36665;51.786;21.594;2022-09-12T11:50:03;95387.56;;;11.99;75.48
50696;BME280;36665;51.786;21.594;2022-09-12T11:58:28;95454.98;;;12.16;75.56
50696;BME280;36665;51.786;21.594;2022-09-12T12:07:05;95504.58;;;12.28;75.68
50696;BME280;36665;51.786;21.594;2022-09-12T12:15:29;95556.69;;;12.41;75.70
50696;BME280;36665;51.786;21.594;2022-09-12T12:32:31;95828.99;;;13.08;75.61
50696;BME280;36665;51.786;21.594;2022-09-12T12:49:52;96054.43;;;13.62;75.97
50696;BME280;36665;51.786;21.594;2022-09-12T13:06:58;96009.95;;;13.51;75.86
50696;BME280;36665;51.786;21.594;2022-09-12T13:24:12;95856.48;;;13.14;75.80
50696;BME280;36665;51.786;21.594;2022-09-12T13:32:37;95857.68;;;13.14;75.54
50696;BME280;36665;51.786;21.594;2022-09-12T13:49:54;95825.45;;;13.06;75.57
50696;BME280;36665;51.786;21.594;2022-09-12T14:06:50;95758.70;;;12.91;75.43
50696;BME280;36665;51.786;21.594;2022-09-12T14:15:26;95738.04;;;12.86;75.39
50696;BME280;36665;51.786;21.594;2022-09-12T14:23:50;95741.00;;;12.87;75.35
50696;BME280;36665;51.786;21.594;2022-09-12T14:32:21;95733.30;;;12.84;75.48
50696;BME280;36665;51.786;21.594;2022-09-12T14:41:05;95708.83;;;12.79;75.43
50696;BME280;36665;51.786;21.594;2022-09-12T14:49:35;95682.21;;;12.71;75.43
50696;BME280;36665;51.786;21.594;2022-09-12T15:06:40;95639.40;;;12.62;75.25
50696;BME280;36665;51.786;21.594;2022-09-12T15:15:12;95625.84;;;12.58;75.27
50696;BME280;36665;51.786;21.594;2022-09-12T15:23:46;95631.67;;;12.59;75.49
50696;BME280;36665;51.786;21.594;2022-09-12T15:32:12;95637.05;;;12.60;75.40
50696;BME280;36665;51.786;21.594;2022-09-12T15:40:49;95613.69;;;12.56;75.25
50696;BME280;36665;51.786;21.594;2022-09-12T15:49:15;95593.29;;;12.49;75.34
50696;BME280;36665;51.786;21.594;2022-09-12T15:57:38;95569.44;;;12.44;75.34
50696;BME280;36665;51.786;21.594;2022-09-12T16:06:03;95537.83;;;12.36;75.24
50696;BME280;36665;51.786;21.594;2022-09-12T16:14:26;95519.41;;;12.32;75.30
50696;BME280;36665;51.786;21.594;2022-09-12T16:22:49;95514.00;;;12.31;75.15
50696;BME280;36665;51.786;21.594;2022-09-12T16:31:13;95509.42;;;12.30;75.37
50696;BME280;36665;51.786;21.594;2022-09-12T16:39:36;95500.04;;;12.27;75.23
50696;BME280;36665;51.786;21.594;2022-09-12T16:48:00;95505.66;;;12.28;75.30
50696;BME280;36665;51.786;21.594;2022-09-12T16:56:24;95477.54;;;12.21;75.20
50696;BME280;36665;51.786;21.594;2022-09-12T17:04:47;95443.52;;;12.12;75.07
50696;BME280;36665;51.786;21.594;2022-09-12T17:13:10;95421.88;;;12.07;75.02
50696;BME280;36665;51.786;21.594;2022-09-12T17:21:34;95419.77;;;12.07;75.21
50696;BME280;36665;51.786;21.594;2022-09-12T17:29:57;95426.77;;;12.09;75.10
50696;BME280;36665;51.786;21.594;2022-09-12T17:38:20;95430.41;;;12.09;75.30
50696;BME280;36665;51.786;21.594;2022-09-12T17:46:46;95418.60;;;12.07;75.12
50696;BME280;36665;51.786;21.594;2022-09-12T17:55:10;95404.17;;;12.03;75.08
50696;BME280;36665;51.786;21.594;2022-09-12T18:03:35;95389.84;;;11.99;75.19
50696;BME280;36665;51.786;21.594;2022-09-12T18:11:58;95402.75;;;12.02;75.30
50696;BME280;36665;51.786;21.594;2022-09-12T18:20:21;95372.48;;;11.95;75.34
50696;BME280;36665;51.786;21.594;2022-09-12T18:28:45;95337.02;;;11.86;75.23
50696;BME280;36665;51.786;21.594;2022-09-12T18:37:07;95319.97;;;11.81;75.12
50696;BME280;36665;51.786;21.594;2022-09-12T18:45:30;95330.27;;;11.84;75.00
50696;BME280;36665;51.786;21.594;2022-09-12T18:53:56;95332.17;;;11.84;75.21
50696;BME280;36665;51.786;21.594;2022-09-12T19:02:19;95307.27;;;11.78;75.18
50696;BME280;36665;51.786;21.594;2022-09-12T19:10:42;95292.96;;;11.74;75.15
50696;BME280;36665;51.786;21.594;2022-09-12T19:19:06;95279.02;;;11.71;75.10
50696;BME280;36665;51.786;21.594;2022-09-12T19:27:31;95282.75;;;11.71;75.25
50696;BME280;36665;51.786;21.594;2022-09-12T19:35:54;95280.16;;;11.71;75.19
50696;BME280;36665;51.786;21.594;2022-09-12T19:44:17;95277.08;;;11.70;75.17
50696;BME280;36665;51.786;21.594;2022-09-12T19:52:42;95278.50;;;11.71;75.29
50696;BME280;36665;51.786;21.594;2022-09-12T20:01:08;95231.95;;;11.59;75.38
50696;BME280;36665;51.786;21.594;2022-09-12T20:09:32;95144.36;;;11.37;75.12
50696;BME280;36665;51.786;21.594;2022-09-12T20:17:56;95084.59;;;11.22;75.08
50696;BME280;36665;51.786;21.594;2022-09-12T20:26:19;95020.67;;;11.06;74.93
50696;BME280;36665;51.786;21.594;2022-09-12T20:34:43;94939.38;;;10.86;75.08
50696;BME280;36665;51.786;21.594;2022-09-12T20:43:06;94878.86;;;10.70;74.92
50696;BME280;36665;51.786;21.594;2022-09-12T20:51:30;94818.86;;;10.56;74.89
50696;BME280;36665;51.786;21.594;2022-09-12T20:59:53;94784.30;;;10.47;74.97
50696;BME280;36665;51.786;21.594;2022-09-12T21:08:16;94768.23;;;10.43;74.87
50696;BME280;36665;51.786;21.594;2022-09-12T21:16:39;94756.34;;;10.39;74.89
50696;BME280;36665;51.786;21.594;2022-09-12T21:25:02;94782.56;;;10.47;74.86
50696;BME280;36665;51.786;21.594;2022-09-12T21:33:26;94792.73;;;10.49;74.98
50696;BME280;36665;51.786;21.594;2022-09-12T21:41:49;94829.85;;;10.58;74.96
50696;BME280;36665;51.786;21.594;2022-09-12T21:50:13;94828.27;;;10.58;75.21
50696;BME280;36665;51.786;21.594;2022-09-12T21:58:36;94806.46;;;10.52;74.88
50696;BME280;36665;51.786;21.594;2022-09-12T22:07:00;94805.70;;;10.51;74.95
50696;BME280;36665;51.786;21.594;2022-09-12T22:15:24;94842.70;;;10.61;75.08
50696;BME280;36665;51.786;21.594;2022-09-12T22:24:03;94857.21;;;10.65;75.25
50696;BME280;36665;51.786;21.594;2022-09-12T22:32:46;94872.58;;;10.69;75.10
50696;BME280;36665;51.786;21.594;2022-09-12T22:41:11;94886.58;;;10.71;75.13
50696;BME280;36665;51.786;21.594;2022-09-12T22:49:34;94868.27;;;10.67;75.38
50696;BME280;36665;51.786;21.594;2022-09-12T22:57:58;94805.18;;;10.51;75.34
50696;BME280;36665;51.786;21.594;2022-09-12T23:06:21;94732.88;;;10.32;75.08
50696;BME280;36665;51.786;21.594;2022-09-12T23:14:44;94693.71;;;10.23;75.07
50696;BME280;36665;51.786;21.594;2022-09-12T23:23:08;94678.45;;;10.20;75.06
50696;BME280;36665;51.786;21.594;2022-09-12T23:31:33;94659.61;;;10.15;75.16
50696;BME280;36665;51.786;21.594;2022-09-12T23:39:57;94674.95;;;10.19;75.18
50696;BME280;36665;51.786;21.594;2022-09-12T23:48:20;94661.55;;;10.15;75.00
50696;BME280;36665;51.786;21.594;2022-09-12T23:56:43;94601.24;;;10.00;75.31
